createdAt,value
2018-03-24T00:01:38.673Z,-67
2018-03-24T00:04:05.135Z,-68
2018-03-24T00:06:31.617Z,-69
2018-03-24T00:08:58.080Z,-69
2018-03-24T00:11:24.550Z,-69
2018-03-24T00:13:51.001Z,-69
2018-03-24T00:16:17.464Z,-68
2018-03-24T00:18:43.945Z,-69
2018-03-24T00:21:10.465Z,-68
2018-03-24T00:23:36.912Z,-68
2018-03-24T00:26:03.404Z,-68
2018-03-24T00:28:30.664Z,-68
2018-03-24T00:30:57.467Z,-67
2018-03-24T00:33:24.036Z,-69
2018-03-24T00:35:51.692Z,-69
2018-03-24T00:38:18.265Z,-68
2018-03-24T00:40:44.719Z,-67
2018-03-24T00:43:11.785Z,-68
2018-03-24T00:45:38.719Z,-69
2018-03-24T00:48:05.253Z,-68
2018-03-24T00:50:31.711Z,-68
2018-03-24T00:52:58.170Z,-68
2018-03-24T00:55:24.622Z,-68
2018-03-24T00:57:53.086Z,-68
2018-03-24T01:00:20.287Z,-68
2018-03-24T01:02:46.836Z,-69
2018-03-24T01:05:13.284Z,-68
2018-03-24T01:07:39.744Z,-69
2018-03-24T01:10:06.286Z,-68
2018-03-24T01:12:32.758Z,-68
2018-03-24T01:14:59.266Z,-68
2018-03-24T01:17:25.723Z,-68
2018-03-24T01:19:52.241Z,-68
2018-03-24T01:22:18.717Z,-69
2018-03-24T01:24:45.195Z,-68
2018-03-24T01:27:11.724Z,-68
2018-03-24T01:29:38.192Z,-69
2018-03-24T01:32:04.688Z,-69
2018-03-24T01:34:31.133Z,-69
2018-03-24T01:36:58.377Z,-68
2018-03-24T01:39:24.859Z,-68
2018-03-24T01:41:52.076Z,-68
2018-03-24T01:44:18.621Z,-68
2018-03-24T01:46:45.082Z,-68
2018-03-24T01:49:11.543Z,-68
2018-03-24T01:51:38.031Z,-68
2018-03-24T01:54:04.491Z,-68
2018-03-24T01:56:31.003Z,-69
2018-03-24T01:58:57.462Z,-69
2018-03-24T02:01:24.703Z,-68
2018-03-24T02:03:51.187Z,-68
2018-03-24T02:06:18.421Z,-67
2018-03-24T02:08:44.890Z,-69
2018-03-24T02:11:11.338Z,-68
2018-03-24T02:13:37.877Z,-68
2018-03-24T02:16:04.319Z,-69
2018-03-24T02:18:30.792Z,-68
2018-03-24T02:20:57.265Z,-68
2018-03-24T02:23:23.711Z,-68
2018-03-24T02:25:50.195Z,-68
2018-03-24T02:28:16.681Z,-69
2018-03-24T02:30:43.171Z,-69
2018-03-24T02:33:09.634Z,-68
2018-03-24T02:35:36.122Z,-69
2018-03-24T02:38:02.585Z,-69
2018-03-24T02:40:29.076Z,-68
2018-03-24T02:42:55.573Z,-68
2018-03-24T02:45:22.044Z,-69
2018-03-24T02:47:48.508Z,-68
2018-03-24T02:50:14.962Z,-68
2018-03-24T02:52:41.414Z,-69
2018-03-24T02:55:07.906Z,-69
2018-03-24T02:57:34.363Z,-68
2018-03-24T03:00:00.829Z,-67
2018-03-24T03:02:27.342Z,-68
2018-03-24T03:04:54.524Z,-68
2018-03-24T03:07:20.995Z,-68
2018-03-24T03:09:47.448Z,-68
2018-03-24T03:12:13.931Z,-69
2018-03-24T03:14:40.426Z,-68
2018-03-24T03:17:07.637Z,-68
2018-03-24T03:19:34.124Z,-68
2018-03-24T03:22:00.593Z,-68
2018-03-24T03:24:27.082Z,-67
2018-03-24T03:26:54.302Z,-68
2018-03-24T03:29:20.786Z,-68
2018-03-24T03:31:47.233Z,-68
2018-03-24T03:34:13.750Z,-68
2018-03-24T03:36:40.225Z,-69
2018-03-24T03:39:06.679Z,-67
2018-03-24T03:41:33.147Z,-68
2018-03-24T03:43:59.619Z,-68
2018-03-24T03:46:26.102Z,-68
2018-03-24T03:48:52.552Z,-68
2018-03-24T03:51:19.053Z,-68
2018-03-24T03:53:46.287Z,-69
2018-03-24T03:56:12.765Z,-69
2018-03-24T03:58:39.218Z,-68
2018-03-24T04:01:05.676Z,-69
2018-03-24T04:03:32.153Z,-68
2018-03-24T04:05:59.396Z,-66
2018-03-24T04:08:25.901Z,-69
2018-03-24T04:10:53.118Z,-68
2018-03-24T04:13:19.617Z,-69
2018-03-24T04:15:46.077Z,-69
2018-03-24T04:18:12.534Z,-68
2018-03-24T04:20:38.992Z,-68
2018-03-24T04:23:05.442Z,-69
2018-03-24T04:25:31.912Z,-69
2018-03-24T04:27:58.386Z,-69
2018-03-24T04:30:25.660Z,-68
2018-03-24T04:32:52.887Z,-68
2018-03-24T04:35:19.366Z,-69
2018-03-24T04:37:45.839Z,-69
2018-03-24T04:40:12.323Z,-68
2018-03-24T04:42:39.589Z,-69
2018-03-24T04:45:06.823Z,-68
2018-03-24T04:47:33.320Z,-69
2018-03-24T04:49:59.765Z,-69
2018-03-24T04:52:26.258Z,-69
2018-03-24T04:54:52.733Z,-68
2018-03-24T04:57:19.252Z,-68
2018-03-24T04:59:45.723Z,-69
2018-03-24T05:02:12.984Z,-68
2018-03-24T05:04:39.474Z,-68
2018-03-24T05:07:06.734Z,-69
2018-03-24T05:09:33.996Z,-69
2018-03-24T05:12:00.455Z,-68
2018-03-24T05:14:26.914Z,-68
2018-03-24T05:16:53.370Z,-69
2018-03-24T05:19:19.826Z,-68
2018-03-24T05:21:46.302Z,-69
2018-03-24T05:24:13.524Z,-69
2018-03-24T05:26:40.008Z,-69
2018-03-24T05:29:06.479Z,-69
2018-03-24T05:31:32.991Z,-67
2018-03-24T05:33:59.461Z,-68
2018-03-24T05:36:25.921Z,-68
2018-03-24T05:38:52.380Z,-68
2018-03-24T05:41:18.876Z,-68
2018-03-24T05:43:45.368Z,-68
2018-03-24T05:46:11.825Z,-69
2018-03-24T05:48:39.130Z,-68
2018-03-24T05:51:05.587Z,-68
2018-03-24T05:53:32.046Z,-68
2018-03-24T05:55:58.511Z,-68
2018-03-24T05:58:24.960Z,-67
2018-03-24T06:00:51.430Z,-69
2018-03-24T06:03:17.875Z,-69
2018-03-24T06:05:44.366Z,-68
2018-03-24T06:08:10.827Z,-68
2018-03-24T06:10:37.363Z,-68
2018-03-24T06:13:03.796Z,-68
2018-03-24T06:15:30.257Z,-68
2018-03-24T06:17:56.702Z,-68
2018-03-24T06:23:00.637Z,-69
2018-03-24T06:25:27.116Z,-68
2018-03-24T06:27:54.402Z,-69
2018-03-24T06:30:20.867Z,-68
2018-03-24T06:32:48.110Z,-69
2018-03-24T06:35:14.567Z,-68
2018-03-24T06:37:41.045Z,-68
2018-03-24T06:40:08.299Z,-68
2018-03-24T06:42:34.784Z,-67
2018-03-24T06:45:01.270Z,-68
2018-03-24T06:47:28.484Z,-68
2018-03-24T06:49:54.969Z,-68
2018-03-24T06:52:21.431Z,-67
2018-03-24T06:54:47.891Z,-68
2018-03-24T06:57:14.954Z,-69
2018-03-24T06:59:41.412Z,-68
2018-03-24T07:02:07.915Z,-68
2018-03-24T07:04:34.372Z,-68
2018-03-24T07:07:00.851Z,-69
2018-03-24T07:09:27.307Z,-69
2018-03-24T07:11:53.803Z,-69
2018-03-24T07:14:20.265Z,-68
2018-03-24T07:16:46.726Z,-68
2018-03-24T07:19:13.179Z,-69
2018-03-24T07:21:39.631Z,-69
2018-03-24T07:24:06.086Z,-69
2018-03-24T07:26:32.559Z,-69
2018-03-24T07:28:59.067Z,-69
2018-03-24T07:31:25.573Z,-69
2018-03-24T07:33:52.064Z,-68
2018-03-24T07:36:19.275Z,-69
2018-03-24T07:38:45.725Z,-69
2018-03-24T07:41:12.215Z,-69
2018-03-24T07:43:38.684Z,-69
2018-03-24T07:46:05.143Z,-69
2018-03-24T07:48:31.601Z,-68
2018-03-24T07:50:58.109Z,-69
2018-03-24T07:53:24.585Z,-68
2018-03-24T07:55:51.056Z,-68
2018-03-24T07:58:17.504Z,-69
2018-03-24T08:00:43.981Z,-68
2018-03-24T08:03:10.454Z,-69
2018-03-24T08:05:36.901Z,-69
2018-03-24T08:08:03.395Z,-69
2018-03-24T08:10:30.623Z,-69
2018-03-24T08:12:57.129Z,-68
2018-03-24T08:15:23.586Z,-69
2018-03-24T08:17:50.071Z,-68
2018-03-24T08:20:16.534Z,-68
2018-03-24T08:22:42.993Z,-69
2018-03-24T08:25:09.444Z,-68
2018-03-24T08:27:36.674Z,-69
2018-03-24T08:30:03.169Z,-69
2018-03-24T08:32:30.405Z,-69
2018-03-24T08:34:56.881Z,-69
2018-03-24T08:37:23.345Z,-68
2018-03-24T08:39:49.817Z,-68
2018-03-24T08:42:17.069Z,-69
2018-03-24T08:44:43.571Z,-68
2018-03-24T08:47:10.822Z,-68
2018-03-24T08:49:38.080Z,-69
2018-03-24T08:52:04.572Z,-69
2018-03-24T08:54:31.799Z,-68
2018-03-24T08:56:58.285Z,-68
2018-03-24T08:59:24.773Z,-68
2018-03-24T09:01:51.251Z,-69
2018-03-24T09:04:17.841Z,-68
2018-03-24T09:06:44.317Z,-69
2018-03-24T09:09:10.812Z,-68
2018-03-24T09:11:38.059Z,-68
2018-03-24T09:14:04.540Z,-68
2018-03-24T09:16:31.786Z,-69
2018-03-24T09:18:58.294Z,-69
2018-03-24T09:21:24.755Z,-69
2018-03-24T09:23:51.202Z,-69
2018-03-24T09:26:18.416Z,-69
2018-03-24T09:28:44.877Z,-68
2018-03-24T09:31:11.383Z,-69
2018-03-24T09:33:37.861Z,-68
2018-03-24T09:36:05.120Z,-68
2018-03-24T09:38:32.353Z,-69
2018-03-24T09:40:58.799Z,-68
2018-03-24T09:43:25.254Z,-69
2018-03-24T09:45:51.696Z,-69
2018-03-24T09:48:18.301Z,-68
2018-03-24T09:50:44.786Z,-68
2018-03-24T09:53:11.281Z,-68
2018-03-24T09:55:37.769Z,-68
2018-03-24T09:58:04.304Z,-68
2018-03-24T10:00:30.826Z,-69
2018-03-24T10:02:57.287Z,-69
2018-03-24T10:05:23.799Z,-68
2018-03-24T10:07:50.258Z,-68
2018-03-24T10:10:16.793Z,-69
2018-03-24T10:12:43.297Z,-69
2018-03-24T10:15:09.799Z,-69
2018-03-24T10:17:37.037Z,-67
2018-03-24T10:20:03.482Z,-68
2018-03-24T10:22:29.970Z,-68
2018-03-24T10:24:56.402Z,-68
2018-03-24T10:27:22.885Z,-69
2018-03-24T10:29:49.365Z,-70
2018-03-24T10:32:16.597Z,-68
2018-03-24T10:34:43.124Z,-68
2018-03-24T10:37:09.593Z,-69
2018-03-24T10:39:36.062Z,-68
2018-03-24T10:42:02.559Z,-68
2018-03-24T10:44:29.807Z,-68
2018-03-24T10:46:56.281Z,-69
2018-03-24T10:49:22.759Z,-69
2018-03-24T10:51:49.996Z,-68
2018-03-24T10:54:16.479Z,-69
2018-03-24T10:56:42.944Z,-69
2018-03-24T10:59:09.420Z,-67
2018-03-24T11:01:36.647Z,-68
2018-03-24T11:04:03.120Z,-68
2018-03-24T11:06:29.573Z,-68
2018-03-24T11:08:56.105Z,-69
2018-03-24T11:11:22.578Z,-69
2018-03-24T11:13:49.025Z,-68
2018-03-24T11:16:15.518Z,-68
2018-03-24T11:18:42.128Z,-69
2018-03-24T11:21:08.615Z,-69
2018-03-24T11:23:35.125Z,-68
2018-03-24T11:26:01.598Z,-68
2018-03-24T11:28:28.831Z,-68
2018-03-24T11:30:55.333Z,-69
2018-03-24T11:33:21.882Z,-68
2018-03-24T11:35:49.286Z,-69
2018-03-24T11:38:15.825Z,-68
2018-03-24T11:40:43.105Z,-68
2018-03-24T11:43:10.361Z,-69
2018-03-24T11:45:36.834Z,-69
2018-03-24T11:48:03.347Z,-69
2018-03-24T11:50:29.870Z,-69
2018-03-24T11:52:57.112Z,-69
2018-03-24T11:55:23.725Z,-68
2018-03-24T11:57:50.201Z,-69
2018-03-24T12:00:16.961Z,-68
2018-03-24T12:02:43.484Z,-68
2018-03-24T12:05:10.720Z,-69
2018-03-24T12:07:37.201Z,-69
2018-03-24T12:10:03.685Z,-68
2018-03-24T12:12:31.150Z,-68
2018-03-24T12:14:58.906Z,-68
2018-03-24T12:17:25.517Z,-68
2018-03-24T12:19:52.855Z,-69
2018-03-24T12:22:19.396Z,-68
2018-03-24T12:24:45.920Z,-68
2018-03-24T12:27:13.567Z,-68
2018-03-24T12:29:40.321Z,-68
2018-03-24T12:32:06.914Z,-69
2018-03-24T12:34:34.183Z,-68
2018-03-24T12:37:00.651Z,-68
2018-03-24T12:39:27.311Z,-68
2018-03-24T12:41:53.923Z,-68
2018-03-24T12:44:20.394Z,-69
2018-03-24T12:46:47.322Z,-68
2018-03-24T12:49:14.039Z,-68
2018-03-24T12:51:40.693Z,-68
2018-03-24T12:54:07.362Z,-68
2018-03-24T12:56:34.202Z,-69
2018-03-24T12:59:00.846Z,-69
2018-03-24T13:01:28.463Z,-69
2018-03-24T13:03:55.365Z,-69
2018-03-24T13:06:22.664Z,-69
2018-03-24T13:08:49.174Z,-70
2018-03-24T13:11:15.760Z,-70
2018-03-24T13:13:42.454Z,-68
2018-03-24T13:16:09.301Z,-68
2018-03-24T13:18:37.016Z,-69
2018-03-24T13:21:03.898Z,-69
2018-03-24T13:23:31.293Z,-69
2018-03-24T13:25:57.801Z,-69
2018-03-24T13:28:24.309Z,-69
2018-03-24T13:30:50.866Z,-69
2018-03-24T13:33:17.346Z,-69
2018-03-24T13:35:44.012Z,-69
2018-03-24T13:38:10.656Z,-69
2018-03-24T13:40:37.468Z,-68
2018-03-24T13:43:04.192Z,-68
2018-03-24T13:45:30.902Z,-68
2018-03-24T13:47:57.470Z,-68
2018-03-24T13:50:24.748Z,-68
2018-03-24T13:52:51.998Z,-69
2018-03-24T13:55:18.550Z,-69
2018-03-24T13:57:45.429Z,-69
2018-03-24T14:00:11.986Z,-69
2018-03-24T14:02:38.901Z,-69
2018-03-24T14:05:05.578Z,-69
2018-03-24T14:07:32.597Z,-68
2018-03-24T14:09:59.208Z,-68
2018-03-24T14:12:25.680Z,-68
2018-03-24T14:14:52.140Z,-68
2018-03-24T14:17:18.689Z,-69
2018-03-24T14:19:45.273Z,-67
2018-03-24T14:22:12.138Z,-68
2018-03-24T14:24:38.629Z,-68
2018-03-24T14:27:05.246Z,-68
2018-03-24T14:29:31.798Z,-69
2018-03-24T14:31:59.125Z,-69
2018-03-24T14:34:25.660Z,-70
2018-03-24T14:36:53.292Z,-69
2018-03-24T14:39:20.231Z,-68
2018-03-24T14:41:47.052Z,-70
2018-03-24T14:44:13.957Z,-68
2018-03-24T14:46:40.528Z,-69
2018-03-24T14:49:07.922Z,-70
2018-03-24T14:51:34.889Z,-69
2018-03-24T14:54:01.592Z,-70
2018-03-24T14:56:28.896Z,-69
2018-03-24T14:58:56.188Z,-69
2018-03-24T15:01:24.039Z,-71
2018-03-24T15:03:50.985Z,-69
2018-03-24T15:06:18.339Z,-70
2018-03-24T15:08:45.584Z,-71
2018-03-24T15:11:12.062Z,-71
2018-03-24T15:13:39.060Z,-71
2018-03-24T15:16:06.124Z,-70
2018-03-24T15:18:33.065Z,-71
2018-03-24T15:21:00.130Z,-71
2018-03-24T15:23:27.044Z,-69
2018-03-24T15:25:54.177Z,-70
2018-03-24T15:28:20.736Z,-70
2018-03-24T15:30:47.696Z,-70
2018-03-24T15:33:14.592Z,-70
2018-03-24T15:35:41.501Z,-71
2018-03-24T15:38:08.347Z,-69
2018-03-24T15:40:35.367Z,-71
2018-03-24T15:43:02.104Z,-70
2018-03-24T15:45:28.970Z,-68
2018-03-24T15:47:55.880Z,-69
2018-03-24T15:50:22.830Z,-70
2018-03-24T15:52:49.987Z,-69
2018-03-24T15:55:16.873Z,-68
2018-03-24T15:57:44.654Z,-70
2018-03-24T16:00:11.709Z,-70
2018-03-24T16:02:38.764Z,-69
2018-03-24T16:05:05.910Z,-70
2018-03-24T16:07:32.899Z,-69
2018-03-24T16:09:59.981Z,-69
2018-03-24T16:12:27.157Z,-69
2018-03-24T16:14:54.121Z,-68
2018-03-24T16:17:21.315Z,-68
2018-03-24T16:19:48.349Z,-70
2018-03-24T16:22:16.186Z,-69
2018-03-24T16:24:43.375Z,-70
2018-03-24T16:27:10.409Z,-69
2018-03-24T16:29:38.367Z,-70
2018-03-24T16:32:06.145Z,-70
2018-03-24T16:34:33.204Z,-71
2018-03-24T16:37:01.030Z,-71
2018-03-24T16:39:28.111Z,-69
2018-03-24T16:41:55.356Z,-70
2018-03-24T16:44:22.333Z,-70
2018-03-24T16:46:50.047Z,-70
2018-03-24T16:49:17.055Z,-70
2018-03-24T16:51:44.103Z,-70
2018-03-24T16:54:11.315Z,-71
2018-03-24T16:56:38.357Z,-70
2018-03-24T16:59:05.484Z,-70
2018-03-24T17:01:33.320Z,-70
2018-03-24T17:04:00.359Z,-69
2018-03-24T17:06:27.525Z,-70
2018-03-24T17:08:54.593Z,-69
2018-03-24T17:11:21.734Z,-69
2018-03-24T17:13:48.777Z,-70
2018-03-24T17:16:15.731Z,-70
2018-03-24T17:18:42.902Z,-70
2018-03-24T17:21:09.993Z,-70
2018-03-24T17:23:37.051Z,-70
2018-03-24T17:26:04.048Z,-70
2018-03-24T17:28:31.094Z,-69
2018-03-24T17:30:58.965Z,-69
2018-03-24T17:33:26.069Z,-69
2018-03-24T17:35:54.057Z,-70
2018-03-24T17:38:21.870Z,-70
2018-03-24T17:40:49.690Z,-70
2018-03-24T17:43:16.891Z,-69
2018-03-24T17:45:43.993Z,-69
2018-03-24T17:48:12.142Z,-69
2018-03-24T17:50:39.236Z,-70
2018-03-24T17:53:06.358Z,-69
2018-03-24T17:55:34.325Z,-69
2018-03-24T17:58:01.540Z,-69
2018-03-24T18:00:28.837Z,-70
2018-03-24T18:02:56.637Z,-70
2018-03-24T18:05:24.464Z,-70
2018-03-24T18:07:52.097Z,-71
2018-03-24T18:10:21.378Z,-72
2018-03-24T18:12:48.537Z,-70
2018-03-24T18:15:16.386Z,-70
2018-03-24T18:17:43.486Z,-70
2018-03-24T18:20:11.468Z,-71
2018-03-24T18:22:39.668Z,-71
2018-03-24T18:25:06.845Z,-70
2018-03-24T18:27:33.952Z,-71
2018-03-24T18:30:03.358Z,-70
2018-03-24T18:32:30.585Z,-71
2018-03-24T18:34:57.693Z,-70
2018-03-24T18:37:24.898Z,-69
2018-03-24T18:39:52.039Z,-69
2018-03-24T18:42:19.145Z,-70
2018-03-24T18:44:46.333Z,-69
2018-03-24T18:47:13.422Z,-69
2018-03-24T18:49:40.774Z,-70
2018-03-24T18:52:07.864Z,-71
2018-03-24T18:54:35.064Z,-69
2018-03-24T18:57:02.901Z,-71
2018-03-24T18:59:30.022Z,-71
2018-03-24T19:01:57.187Z,-71
2018-03-24T19:04:24.367Z,-71
2018-03-24T19:06:52.410Z,-72
2018-03-24T19:09:20.284Z,-72
2018-03-24T19:11:48.119Z,-71
2018-03-24T19:14:15.319Z,-71
2018-03-24T19:16:42.412Z,-72
2018-03-24T19:19:09.609Z,-71
2018-03-24T19:21:37.445Z,-73
2018-03-24T19:24:04.561Z,-70
2018-03-24T19:26:32.389Z,-71
2018-03-24T19:28:59.463Z,-68
2018-03-24T19:31:26.672Z,-70
2018-03-24T19:33:53.775Z,-71
2018-03-24T19:36:21.746Z,-71
2018-03-24T19:38:48.829Z,-72
2018-03-24T19:41:15.900Z,-73
2018-03-24T19:43:43.101Z,-72
2018-03-24T19:46:12.180Z,-70
2018-03-24T19:48:39.791Z,-75
2018-03-24T19:51:06.908Z,-70
2018-03-24T19:53:34.084Z,-70
2018-03-24T19:56:01.188Z,-69
2018-03-24T19:58:28.435Z,-69
2018-03-24T20:00:55.560Z,-69
2018-03-24T20:03:25.407Z,-72
2018-03-24T20:05:52.597Z,-67
2018-03-24T20:08:20.481Z,-70
2018-03-24T20:10:47.705Z,-68
2018-03-24T20:13:14.880Z,-69
2018-03-24T20:15:42.005Z,-69
2018-03-24T20:18:10.027Z,-72
2018-03-24T20:20:37.092Z,-70
2018-03-24T20:23:04.298Z,-71
2018-03-24T20:25:31.400Z,-67
2018-03-24T20:27:59.533Z,-72
2018-03-24T20:30:27.409Z,-69
2018-03-24T20:32:55.708Z,-71
2018-03-24T20:35:23.538Z,-74
2018-03-24T20:37:51.270Z,-74
2018-03-24T20:40:19.259Z,-71
2018-03-24T20:42:46.475Z,-72
2018-03-24T20:45:14.295Z,-73
2018-03-24T20:47:41.457Z,-69
2018-03-24T20:50:08.700Z,-72
2018-03-24T20:52:35.867Z,-72
2018-03-24T20:55:03.052Z,-70
2018-03-24T20:57:30.919Z,-74
2018-03-24T20:59:58.113Z,-70
2018-03-24T21:02:25.219Z,-72
2018-03-24T21:04:52.479Z,-73
2018-03-24T21:07:20.356Z,-73
2018-03-24T21:09:47.445Z,-70
2018-03-24T21:12:15.398Z,-74
2018-03-24T21:14:43.062Z,-72
2018-03-24T21:17:11.216Z,-72
2018-03-24T21:19:39.089Z,-71
2018-03-24T21:22:06.179Z,-74
2018-03-24T21:24:34.126Z,-72
2018-03-24T21:27:01.202Z,-72
2018-03-24T21:29:28.394Z,-70
2018-03-24T21:31:55.545Z,-70
2018-03-24T21:34:22.735Z,-70
2018-03-24T21:36:49.810Z,-72
2018-03-24T21:39:16.907Z,-73
2018-03-24T21:41:43.941Z,-70
2018-03-24T21:44:11.021Z,-72
2018-03-24T21:46:38.158Z,-72
2018-03-24T21:49:05.958Z,-73
2018-03-24T21:51:33.754Z,-70
2018-03-24T21:54:00.780Z,-70
2018-03-24T21:56:27.832Z,-70
2018-03-24T21:58:54.900Z,-72
2018-03-24T22:01:22.138Z,-70
2018-03-24T22:03:49.220Z,-72
2018-03-24T22:06:16.546Z,-70
2018-03-24T22:08:43.636Z,-70
2018-03-24T22:11:10.633Z,-70
2018-03-24T22:13:38.568Z,-70
2018-03-24T22:16:05.583Z,-72
2018-03-24T22:18:32.766Z,-70
2018-03-24T22:21:00.703Z,-72
2018-03-24T22:23:27.874Z,-72
2018-03-24T22:25:54.923Z,-71
2018-03-24T22:28:22.057Z,-70
2018-03-24T22:30:49.149Z,-70
2018-03-24T22:33:16.200Z,-70
2018-03-24T22:35:43.288Z,-70
2018-03-24T22:38:10.356Z,-69
2018-03-24T22:40:37.575Z,-69
2018-03-24T22:43:04.676Z,-68
2018-03-24T22:45:31.973Z,-69
2018-03-24T22:47:59.023Z,-71
2018-03-24T22:50:26.066Z,-72
2018-03-24T22:52:53.216Z,-69
2018-03-24T22:55:20.285Z,-69
2018-03-24T22:57:48.174Z,-68
2018-03-24T23:00:15.232Z,-70
2018-03-24T23:02:42.604Z,-71
2018-03-24T23:05:09.764Z,-69
2018-03-24T23:07:37.649Z,-71
2018-03-24T23:10:04.608Z,-71
2018-03-24T23:12:32.388Z,-69
2018-03-24T23:14:59.879Z,-69
2018-03-24T23:17:26.789Z,-69
2018-03-24T23:19:53.347Z,-69
2018-03-24T23:22:19.896Z,-69
2018-03-24T23:24:47.130Z,-70
2018-03-24T23:27:13.632Z,-69
2018-03-24T23:29:40.088Z,-72
2018-03-24T23:32:06.553Z,-69
2018-03-24T23:34:33.003Z,-68
2018-03-24T23:36:59.486Z,-69
2018-03-24T23:39:26.693Z,-69
2018-03-24T23:41:53.335Z,-69
2018-03-24T23:44:19.860Z,-72
2018-03-24T23:46:46.290Z,-72
2018-03-24T23:49:12.761Z,-70
2018-03-24T23:51:39.208Z,-72
2018-03-24T23:54:05.647Z,-69
2018-03-24T23:56:32.121Z,-69
2018-03-24T23:58:58.590Z,-70
